sensor_id;sensor_type;location;lat;lon;timestamp;P1;durP1;ratioP1;P2;durP2;ratioP2
19111;SDS011;9688;51.906;8.376;2023-05-18T00:00:00;11.40;;;4.10;;
19111;SDS011;9688;51.906;8.376;2023-05-18T00:02:54;6.90;;;3.87;;
19111;SDS011;9688;51.906;8.376;2023-05-18T00:05:40;13.77;;;4.37;;
19111;SDS011;9688;51.906;8.376;2023-05-18T00:08:28;6.13;;;4.10;;
19111;SDS011;9688;51.906;8.376;2023-05-18T00:11:14;8.17;;;3.73;;
19111;SDS011;9688;51.906;8.376;2023-05-18T00:14:00;12.77;;;4.23;;
19111;SDS011;9688;51.906;8.376;2023-05-18T00:16:46;8.70;;;3.93;;
19111;SDS011;9688;51.906;8.376;2023-05-18T00:19:32;9.27;;;3.73;;
19111;SDS011;9688;51.906;8.376;2023-05-18T00:22:19;8.57;;;4.50;;
19111;SDS011;9688;51.906;8.376;2023-05-18T00:25:07;6.93;;;4.20;;
19111;SDS011;9688;51.906;8.376;2023-05-18T00:27:53;11.57;;;4.63;;
19111;SDS011;9688;51.906;8.376;2023-05-18T00:30:38;10.53;;;3.90;;
19111;SDS011;9688;51.906;8.376;2023-05-18T00:33:24;10.70;;;4.70;;
19111;SDS011;9688;51.906;8.376;2023-05-18T00:36:10;13.90;;;4.30;;
19111;SDS011;9688;51.906;8.376;2023-05-18T00:38:56;12.50;;;4.53;;
19111;SDS011;9688;51.906;8.376;2023-05-18T00:41:44;14.30;;;4.80;;
19111;SDS011;9688;51.906;8.376;2023-05-18T00:44:30;9.97;;;4.10;;
19111;SDS011;9688;51.906;8.376;2023-05-18T00:47:16;8.30;;;4.40;;
19111;SDS011;9688;51.906;8.376;2023-05-18T00:50:04;10.97;;;4.23;;
19111;SDS011;9688;51.906;8.376;2023-05-18T00:52:51;12.27;;;4.27;;
19111;SDS011;9688;51.906;8.376;2023-05-18T00:55:38;9.30;;;4.03;;
19111;SDS011;9688;51.906;8.376;2023-05-18T00:58:25;10.93;;;4.37;;
19111;SDS011;9688;51.906;8.376;2023-05-18T01:01:11;11.60;;;4.27;;
19111;SDS011;9688;51.906;8.376;2023-05-18T01:04:01;12.30;;;4.63;;
19111;SDS011;9688;51.906;8.376;2023-05-18T01:06:47;10.03;;;4.20;;
19111;SDS011;9688;51.906;8.376;2023-05-18T01:09:33;14.57;;;4.60;;
19111;SDS011;9688;51.906;8.376;2023-05-18T01:12:20;7.07;;;4.33;;
19111;SDS011;9688;51.906;8.376;2023-05-18T01:15:15;12.07;;;4.50;;
19111;SDS011;9688;51.906;8.376;2023-05-18T01:18:06;7.93;;;4.53;;
19111;SDS011;9688;51.906;8.376;2023-05-18T01:20:58;8.97;;;4.40;;
19111;SDS011;9688;51.906;8.376;2023-05-18T01:24:00;15.57;;;4.67;;
19111;SDS011;9688;51.906;8.376;2023-05-18T01:27:00;13.20;;;5.00;;
19111;SDS011;9688;51.906;8.376;2023-05-18T01:29:49;11.07;;;4.53;;
19111;SDS011;9688;51.906;8.376;2023-05-18T01:32:38;7.63;;;4.90;;
19111;SDS011;9688;51.906;8.376;2023-05-18T01:35:26;9.40;;;4.97;;
19111;SDS011;9688;51.906;8.376;2023-05-18T01:38:11;9.10;;;4.47;;
19111;SDS011;9688;51.906;8.376;2023-05-18T01:41:01;11.47;;;5.20;;
19111;SDS011;9688;51.906;8.376;2023-05-18T01:43:59;11.10;;;5.17;;
19111;SDS011;9688;51.906;8.376;2023-05-18T01:46:50;13.03;;;4.87;;
19111;SDS011;9688;51.906;8.376;2023-05-18T01:49:42;7.67;;;5.87;;
19111;SDS011;9688;51.906;8.376;2023-05-18T01:52:31;13.23;;;5.80;;
19111;SDS011;9688;51.906;8.376;2023-05-18T01:55:20;13.10;;;6.63;;
19111;SDS011;9688;51.906;8.376;2023-05-18T01:58:08;10.53;;;5.40;;
19111;SDS011;9688;51.906;8.376;2023-05-18T02:00:57;10.43;;;5.73;;
19111;SDS011;9688;51.906;8.376;2023-05-18T02:03:43;13.87;;;6.50;;
19111;SDS011;9688;51.906;8.376;2023-05-18T02:06:29;13.07;;;5.60;;
19111;SDS011;9688;51.906;8.376;2023-05-18T02:09:16;13.93;;;5.77;;
19111;SDS011;9688;51.906;8.376;2023-05-18T02:12:02;15.67;;;5.50;;
19111;SDS011;9688;51.906;8.376;2023-05-18T02:14:49;10.97;;;5.60;;
19111;SDS011;9688;51.906;8.376;2023-05-18T02:17:36;12.87;;;5.43;;
19111;SDS011;9688;51.906;8.376;2023-05-18T02:20:21;10.50;;;5.57;;
19111;SDS011;9688;51.906;8.376;2023-05-18T02:23:08;10.57;;;5.00;;
19111;SDS011;9688;51.906;8.376;2023-05-18T02:25:54;11.07;;;5.00;;
19111;SDS011;9688;51.906;8.376;2023-05-18T02:28:39;9.07;;;4.87;;
19111;SDS011;9688;51.906;8.376;2023-05-18T02:31:25;9.97;;;4.70;;
19111;SDS011;9688;51.906;8.376;2023-05-18T02:34:13;11.70;;;4.43;;
19111;SDS011;9688;51.906;8.376;2023-05-18T02:37:00;6.27;;;4.43;;
19111;SDS011;9688;51.906;8.376;2023-05-18T02:39:47;11.77;;;4.40;;
19111;SDS011;9688;51.906;8.376;2023-05-18T02:42:32;23.07;;;4.97;;
19111;SDS011;9688;51.906;8.376;2023-05-18T02:45:19;11.77;;;5.03;;
19111;SDS011;9688;51.906;8.376;2023-05-18T02:48:05;13.17;;;4.33;;
19111;SDS011;9688;51.906;8.376;2023-05-18T02:50:52;12.33;;;4.13;;
19111;SDS011;9688;51.906;8.376;2023-05-18T02:53:38;12.63;;;4.57;;
19111;SDS011;9688;51.906;8.376;2023-05-18T02:56:24;13.17;;;5.10;;
19111;SDS011;9688;51.906;8.376;2023-05-18T02:59:11;9.37;;;4.33;;
19111;SDS011;9688;51.906;8.376;2023-05-18T03:01:57;13.53;;;5.03;;
19111;SDS011;9688;51.906;8.376;2023-05-18T03:04:43;10.67;;;4.77;;
19111;SDS011;9688;51.906;8.376;2023-05-18T03:07:31;14.30;;;4.60;;
19111;SDS011;9688;51.906;8.376;2023-05-18T03:10:17;8.07;;;4.20;;
19111;SDS011;9688;51.906;8.376;2023-05-18T03:13:04;9.37;;;4.17;;
19111;SDS011;9688;51.906;8.376;2023-05-18T03:15:49;10.83;;;4.50;;
19111;SDS011;9688;51.906;8.376;2023-05-18T03:18:35;13.43;;;4.17;;
19111;SDS011;9688;51.906;8.376;2023-05-18T03:21:21;9.30;;;3.47;;
19111;SDS011;9688;51.906;8.376;2023-05-18T03:24:09;17.43;;;3.33;;
19111;SDS011;9688;51.906;8.376;2023-05-18T03:26:58;12.90;;;3.60;;
19111;SDS011;9688;51.906;8.376;2023-05-18T03:29:43;8.93;;;3.37;;
19111;SDS011;9688;51.906;8.376;2023-05-18T03:32:30;9.67;;;3.43;;
19111;SDS011;9688;51.906;8.376;2023-05-18T03:35:16;8.37;;;2.97;;
19111;SDS011;9688;51.906;8.376;2023-05-18T03:38:01;14.93;;;3.40;;
19111;SDS011;9688;51.906;8.376;2023-05-18T03:40:49;6.90;;;3.37;;
19111;SDS011;9688;51.906;8.376;2023-05-18T03:43:35;13.37;;;3.33;;
19111;SDS011;9688;51.906;8.376;2023-05-18T03:46:20;8.13;;;3.10;;
19111;SDS011;9688;51.906;8.376;2023-05-18T03:49:07;14.30;;;3.40;;
19111;SDS011;9688;51.906;8.376;2023-05-18T03:51:53;6.83;;;3.13;;
19111;SDS011;9688;51.906;8.376;2023-05-18T03:54:39;18.07;;;3.73;;
19111;SDS011;9688;51.906;8.376;2023-05-18T03:57:28;8.43;;;3.37;;
19111;SDS011;9688;51.906;8.376;2023-05-18T04:00:14;10.80;;;2.93;;
19111;SDS011;9688;51.906;8.376;2023-05-18T04:03:01;6.87;;;3.10;;
19111;SDS011;9688;51.906;8.376;2023-05-18T04:05:48;10.17;;;3.33;;
19111;SDS011;9688;51.906;8.376;2023-05-18T04:08:34;8.83;;;3.10;;
19111;SDS011;9688;51.906;8.376;2023-05-18T04:11:19;11.60;;;3.20;;
19111;SDS011;9688;51.906;8.376;2023-05-18T04:14:07;9.50;;;3.70;;
19111;SDS011;9688;51.906;8.376;2023-05-18T04:16:53;11.33;;;3.20;;
19111;SDS011;9688;51.906;8.376;2023-05-18T04:19:40;8.83;;;3.13;;
19111;SDS011;9688;51.906;8.376;2023-05-18T04:22:30;11.13;;;3.23;;
19111;SDS011;9688;51.906;8.376;2023-05-18T04:25:16;13.37;;;3.93;;
19111;SDS011;9688;51.906;8.376;2023-05-18T04:28:01;6.13;;;3.10;;
19111;SDS011;9688;51.906;8.376;2023-05-18T04:30:49;8.10;;;2.93;;
19111;SDS011;9688;51.906;8.376;2023-05-18T04:33:35;11.93;;;2.97;;
19111;SDS011;9688;51.906;8.376;2023-05-18T04:36:21;11.60;;;3.07;;
19111;SDS011;9688;51.906;8.376;2023-05-18T04:39:09;8.87;;;3.37;;
19111;SDS011;9688;51.906;8.376;2023-05-18T04:41:55;10.40;;;3.30;;
19111;SDS011;9688;51.906;8.376;2023-05-18T04:44:42;7.40;;;3.60;;
19111;SDS011;9688;51.906;8.376;2023-05-18T04:47:29;4.90;;;2.83;;
19111;SDS011;9688;51.906;8.376;2023-05-18T04:50:15;8.73;;;3.03;;
19111;SDS011;9688;51.906;8.376;2023-05-18T04:53:02;11.73;;;3.30;;
19111;SDS011;9688;51.906;8.376;2023-05-18T04:55:51;8.67;;;3.33;;
19111;SDS011;9688;51.906;8.376;2023-05-18T04:58:37;6.90;;;3.00;;
19111;SDS011;9688;51.906;8.376;2023-05-18T05:01:24;10.17;;;3.20;;
19111;SDS011;9688;51.906;8.376;2023-05-18T05:04:12;8.77;;;2.77;;
19111;SDS011;9688;51.906;8.376;2023-05-18T05:06:58;9.77;;;2.87;;
19111;SDS011;9688;51.906;8.376;2023-05-18T05:09:44;9.10;;;2.90;;
19111;SDS011;9688;51.906;8.376;2023-05-18T05:12:31;11.37;;;3.17;;
19111;SDS011;9688;51.906;8.376;2023-05-18T05:15:17;8.57;;;2.70;;
19111;SDS011;9688;51.906;8.376;2023-05-18T05:18:03;8.57;;;2.67;;
19111;SDS011;9688;51.906;8.376;2023-05-18T05:20:50;13.03;;;2.83;;
19111;SDS011;9688;51.906;8.376;2023-05-18T05:23:36;8.50;;;3.20;;
19111;SDS011;9688;51.906;8.376;2023-05-18T05:26:22;7.73;;;2.77;;
19111;SDS011;9688;51.906;8.376;2023-05-18T05:29:08;7.33;;;2.67;;
19111;SDS011;9688;51.906;8.376;2023-05-18T05:31:54;9.17;;;2.33;;
19111;SDS011;9688;51.906;8.376;2023-05-18T05:34:40;7.80;;;2.27;;
19111;SDS011;9688;51.906;8.376;2023-05-18T05:37:31;9.73;;;2.40;;
19111;SDS011;9688;51.906;8.376;2023-05-18T05:40:17;6.53;;;2.27;;
19111;SDS011;9688;51.906;8.376;2023-05-18T05:43:03;9.90;;;2.60;;
19111;SDS011;9688;51.906;8.376;2023-05-18T05:45:49;5.93;;;2.60;;
19111;SDS011;9688;51.906;8.376;2023-05-18T05:48:37;8.00;;;2.70;;
19111;SDS011;9688;51.906;8.376;2023-05-18T05:51:23;9.63;;;3.23;;
19111;SDS011;9688;51.906;8.376;2023-05-18T05:54:10;9.83;;;2.93;;
19111;SDS011;9688;51.906;8.376;2023-05-18T05:56:56;7.37;;;2.50;;
19111;SDS011;9688;51.906;8.376;2023-05-18T05:59:42;9.93;;;3.20;;
19111;SDS011;9688;51.906;8.376;2023-05-18T06:02:30;7.27;;;2.53;;
19111;SDS011;9688;51.906;8.376;2023-05-18T06:05:17;7.00;;;2.83;;
19111;SDS011;9688;51.906;8.376;2023-05-18T06:08:05;8.17;;;2.57;;
19111;SDS011;9688;51.906;8.376;2023-05-18T06:10:52;10.83;;;2.60;;
19111;SDS011;9688;51.906;8.376;2023-05-18T06:13:37;9.37;;;3.10;;
19111;SDS011;9688;51.906;8.376;2023-05-18T06:16:23;10.87;;;2.50;;
19111;SDS011;9688;51.906;8.376;2023-05-18T06:19:09;12.43;;;3.43;;
19111;SDS011;9688;51.906;8.376;2023-05-18T06:21:55;8.47;;;2.53;;
19111;SDS011;9688;51.906;8.376;2023-05-18T06:24:41;7.90;;;2.50;;
19111;SDS011;9688;51.906;8.376;2023-05-18T06:27:28;10.27;;;2.60;;
19111;SDS011;9688;51.906;8.376;2023-05-18T06:30:15;9.13;;;2.60;;
19111;SDS011;9688;51.906;8.376;2023-05-18T06:33:01;6.33;;;2.70;;
19111;SDS011;9688;51.906;8.376;2023-05-18T06:35:48;5.27;;;1.80;;
19111;SDS011;9688;51.906;8.376;2023-05-18T06:38:34;6.90;;;2.10;;
19111;SDS011;9688;51.906;8.376;2023-05-18T06:41:20;8.57;;;2.67;;
19111;SDS011;9688;51.906;8.376;2023-05-18T06:44:07;6.83;;;2.10;;
19111;SDS011;9688;51.906;8.376;2023-05-18T06:46:54;9.67;;;2.67;;
19111;SDS011;9688;51.906;8.376;2023-05-18T06:49:39;5.73;;;3.13;;
19111;SDS011;9688;51.906;8.376;2023-05-18T06:52:25;10.93;;;2.80;;
19111;SDS011;9688;51.906;8.376;2023-05-18T06:55:11;8.13;;;2.40;;
19111;SDS011;9688;51.906;8.376;2023-05-18T06:57:58;8.27;;;2.50;;
19111;SDS011;9688;51.906;8.376;2023-05-18T07:00:45;7.90;;;2.20;;
19111;SDS011;9688;51.906;8.376;2023-05-18T07:03:32;8.77;;;2.90;;
19111;SDS011;9688;51.906;8.376;2023-05-18T07:06:19;7.47;;;2.67;;
19111;SDS011;9688;51.906;8.376;2023-05-18T07:09:05;10.17;;;2.47;;
19111;SDS011;9688;51.906;8.376;2023-05-18T07:11:51;7.00;;;2.70;;
19111;SDS011;9688;51.906;8.376;2023-05-18T07:14:37;9.93;;;2.50;;
19111;SDS011;9688;51.906;8.376;2023-05-18T07:17:24;6.23;;;2.47;;
19111;SDS011;9688;51.906;8.376;2023-05-18T07:20:10;14.77;;;3.30;;
19111;SDS011;9688;51.906;8.376;2023-05-18T07:22:59;6.07;;;2.80;;
19111;SDS011;9688;51.906;8.376;2023-05-18T07:25:45;8.30;;;2.57;;
19111;SDS011;9688;51.906;8.376;2023-05-18T07:28:32;7.33;;;2.30;;
19111;SDS011;9688;51.906;8.376;2023-05-18T07:31:17;6.07;;;2.53;;
19111;SDS011;9688;51.906;8.376;2023-05-18T07:34:06;8.53;;;2.90;;
19111;SDS011;9688;51.906;8.376;2023-05-18T07:36:52;6.40;;;2.57;;
19111;SDS011;9688;51.906;8.376;2023-05-18T07:39:39;9.23;;;2.60;;
19111;SDS011;9688;51.906;8.376;2023-05-18T07:42:25;7.17;;;2.77;;
19111;SDS011;9688;51.906;8.376;2023-05-18T07:45:13;7.03;;;2.73;;
19111;SDS011;9688;51.906;8.376;2023-05-18T07:47:59;5.80;;;2.47;;
19111;SDS011;9688;51.906;8.376;2023-05-18T07:50:46;9.77;;;2.60;;
19111;SDS011;9688;51.906;8.376;2023-05-18T07:53:32;7.37;;;2.53;;
19111;SDS011;9688;51.906;8.376;2023-05-18T07:56:18;7.77;;;2.50;;
19111;SDS011;9688;51.906;8.376;2023-05-18T07:59:04;5.73;;;2.30;;
19111;SDS011;9688;51.906;8.376;2023-05-18T08:01:50;8.80;;;2.90;;
19111;SDS011;9688;51.906;8.376;2023-05-18T08:04:36;8.07;;;3.20;;
19111;SDS011;9688;51.906;8.376;2023-05-18T08:07:23;6.53;;;2.50;;
19111;SDS011;9688;51.906;8.376;2023-05-18T08:10:09;11.87;;;3.13;;
19111;SDS011;9688;51.906;8.376;2023-05-18T08:12:57;8.60;;;2.17;;
19111;SDS011;9688;51.906;8.376;2023-05-18T08:15:44;8.87;;;2.70;;
19111;SDS011;9688;51.906;8.376;2023-05-18T08:18:30;10.87;;;2.67;;
19111;SDS011;9688;51.906;8.376;2023-05-18T08:21:16;7.93;;;2.90;;
19111;SDS011;9688;51.906;8.376;2023-05-18T08:24:06;6.17;;;2.53;;
19111;SDS011;9688;51.906;8.376;2023-05-18T08:26:54;8.43;;;2.60;;
19111;SDS011;9688;51.906;8.376;2023-05-18T08:29:41;5.57;;;2.40;;
19111;SDS011;9688;51.906;8.376;2023-05-18T08:32:29;10.67;;;3.00;;
19111;SDS011;9688;51.906;8.376;2023-05-18T08:35:15;6.10;;;2.97;;
19111;SDS011;9688;51.906;8.376;2023-05-18T08:38:02;9.40;;;2.73;;
19111;SDS011;9688;51.906;8.376;2023-05-18T08:40:52;7.50;;;2.33;;
19111;SDS011;9688;51.906;8.376;2023-05-18T08:43:44;7.53;;;2.90;;
19111;SDS011;9688;51.906;8.376;2023-05-18T08:46:33;6.23;;;2.67;;
19111;SDS011;9688;51.906;8.376;2023-05-18T08:49:21;11.90;;;2.93;;
19111;SDS011;9688;51.906;8.376;2023-05-18T08:52:11;11.00;;;2.90;;
19111;SDS011;9688;51.906;8.376;2023-05-18T08:55:04;18.17;;;3.17;;
19111;SDS011;9688;51.906;8.376;2023-05-18T08:57:53;10.47;;;4.17;;
19111;SDS011;9688;51.906;8.376;2023-05-18T09:00:43;5.93;;;3.73;;
19111;SDS011;9688;51.906;8.376;2023-05-18T09:03:29;10.90;;;3.10;;
19111;SDS011;9688;51.906;8.376;2023-05-18T09:06:16;8.10;;;2.93;;
19111;SDS011;9688;51.906;8.376;2023-05-18T09:09:03;7.37;;;2.30;;
19111;SDS011;9688;51.906;8.376;2023-05-18T09:11:50;14.37;;;2.90;;
19111;SDS011;9688;51.906;8.376;2023-05-18T09:14:38;6.53;;;2.73;;
19111;SDS011;9688;51.906;8.376;2023-05-18T09:17:25;10.00;;;2.47;;
19111;SDS011;9688;51.906;8.376;2023-05-18T09:20:11;10.77;;;2.57;;
19111;SDS011;9688;51.906;8.376;2023-05-18T09:22:58;8.80;;;2.50;;
19111;SDS011;9688;51.906;8.376;2023-05-18T09:25:45;10.23;;;2.87;;
19111;SDS011;9688;51.906;8.376;2023-05-18T09:28:34;10.70;;;2.87;;
19111;SDS011;9688;51.906;8.376;2023-05-18T09:31:22;9.83;;;2.70;;
19111;SDS011;9688;51.906;8.376;2023-05-18T09:34:10;11.90;;;2.97;;
19111;SDS011;9688;51.906;8.376;2023-05-18T09:36:56;8.60;;;3.60;;
19111;SDS011;9688;51.906;8.376;2023-05-18T09:39:42;5.87;;;2.50;;
19111;SDS011;9688;51.906;8.376;2023-05-18T09:42:35;5.97;;;3.33;;
19111;SDS011;9688;51.906;8.376;2023-05-18T09:45:22;7.20;;;2.70;;
19111;SDS011;9688;51.906;8.376;2023-05-18T09:48:10;8.37;;;2.93;;
19111;SDS011;9688;51.906;8.376;2023-05-18T09:50:58;8.13;;;3.00;;
19111;SDS011;9688;51.906;8.376;2023-05-18T09:53:46;6.00;;;2.47;;
19111;SDS011;9688;51.906;8.376;2023-05-18T09:56:35;9.03;;;2.83;;
19111;SDS011;9688;51.906;8.376;2023-05-18T09:59:22;5.77;;;2.80;;
19111;SDS011;9688;51.906;8.376;2023-05-18T10:02:08;6.70;;;2.40;;
19111;SDS011;9688;51.906;8.376;2023-05-18T10:04:59;9.67;;;2.80;;
19111;SDS011;9688;51.906;8.376;2023-05-18T10:07:46;8.33;;;2.63;;
19111;SDS011;9688;51.906;8.376;2023-05-18T10:10:36;9.30;;;2.73;;
19111;SDS011;9688;51.906;8.376;2023-05-18T10:13:24;8.03;;;2.77;;
19111;SDS011;9688;51.906;8.376;2023-05-18T10:16:11;9.10;;;3.37;;
19111;SDS011;9688;51.906;8.376;2023-05-18T10:18:56;12.87;;;3.30;;
19111;SDS011;9688;51.906;8.376;2023-05-18T10:21:47;9.43;;;3.03;;
19111;SDS011;9688;51.906;8.376;2023-05-18T10:24:37;8.47;;;3.10;;
19111;SDS011;9688;51.906;8.376;2023-05-18T10:27:26;10.93;;;4.17;;
19111;SDS011;9688;51.906;8.376;2023-05-18T10:30:17;5.57;;;2.70;;
19111;SDS011;9688;51.906;8.376;2023-05-18T10:33:09;6.83;;;2.50;;
19111;SDS011;9688;51.906;8.376;2023-05-18T10:35:57;13.27;;;3.10;;
19111;SDS011;9688;51.906;8.376;2023-05-18T10:38:44;6.00;;;3.13;;
19111;SDS011;9688;51.906;8.376;2023-05-18T10:41:31;11.43;;;3.43;;
19111;SDS011;9688;51.906;8.376;2023-05-18T10:44:20;6.83;;;2.80;;
19111;SDS011;9688;51.906;8.376;2023-05-18T10:47:08;6.20;;;2.70;;
19111;SDS011;9688;51.906;8.376;2023-05-18T10:49:55;7.60;;;3.37;;
19111;SDS011;9688;51.906;8.376;2023-05-18T10:52:43;10.33;;;3.40;;
19111;SDS011;9688;51.906;8.376;2023-05-18T10:55:32;8.73;;;2.60;;
19111;SDS011;9688;51.906;8.376;2023-05-18T10:58:19;7.63;;;2.60;;
19111;SDS011;9688;51.906;8.376;2023-05-18T11:01:08;7.27;;;3.83;;
19111;SDS011;9688;51.906;8.376;2023-05-18T11:03:56;8.13;;;3.10;;
19111;SDS011;9688;51.906;8.376;2023-05-18T11:06:52;8.77;;;3.17;;
19111;SDS011;9688;51.906;8.376;2023-05-18T11:09:41;10.40;;;3.13;;
19111;SDS011;9688;51.906;8.376;2023-05-18T11:12:32;5.30;;;2.40;;
19111;SDS011;9688;51.906;8.376;2023-05-18T11:15:21;7.90;;;2.93;;
19111;SDS011;9688;51.906;8.376;2023-05-18T11:18:44;13.57;;;3.23;;
19111;SDS011;9688;51.906;8.376;2023-05-18T11:21:51;5.30;;;2.70;;
19111;SDS011;9688;51.906;8.376;2023-05-18T11:24:39;8.73;;;3.10;;
19111;SDS011;9688;51.906;8.376;2023-05-18T11:27:26;11.17;;;3.43;;
19111;SDS011;9688;51.906;8.376;2023-05-18T11:30:26;6.60;;;2.87;;
19111;SDS011;9688;51.906;8.376;2023-05-18T11:33:13;10.67;;;3.40;;
19111;SDS011;9688;51.906;8.376;2023-05-18T11:36:02;9.10;;;3.20;;
19111;SDS011;9688;51.906;8.376;2023-05-18T11:38:51;5.03;;;2.57;;
19111;SDS011;9688;51.906;8.376;2023-05-18T11:41:38;6.03;;;2.70;;
19111;SDS011;9688;51.906;8.376;2023-05-18T11:44:27;7.67;;;3.10;;
19111;SDS011;9688;51.906;8.376;2023-05-18T11:47:15;17.23;;;3.40;;
19111;SDS011;9688;51.906;8.376;2023-05-18T11:50:05;12.27;;;2.90;;
19111;SDS011;9688;51.906;8.376;2023-05-18T11:52:52;7.57;;;2.83;;
19111;SDS011;9688;51.906;8.376;2023-05-18T11:55:39;4.47;;;2.50;;
19111;SDS011;9688;51.906;8.376;2023-05-18T11:58:26;7.10;;;3.00;;
19111;SDS011;9688;51.906;8.376;2023-05-18T12:01:14;8.07;;;3.07;;
19111;SDS011;9688;51.906;8.376;2023-05-18T12:04:01;6.53;;;3.23;;
19111;SDS011;9688;51.906;8.376;2023-05-18T12:06:48;6.80;;;2.47;;
19111;SDS011;9688;51.906;8.376;2023-05-18T12:09:34;6.43;;;3.00;;
19111;SDS011;9688;51.906;8.376;2023-05-18T12:12:26;5.90;;;2.83;;
19111;SDS011;9688;51.906;8.376;2023-05-18T12:15:13;11.60;;;3.37;;
19111;SDS011;9688;51.906;8.376;2023-05-18T12:17:58;11.47;;;3.37;;
19111;SDS011;9688;51.906;8.376;2023-05-18T12:20:47;4.77;;;2.80;;
19111;SDS011;9688;51.906;8.376;2023-05-18T12:23:34;6.80;;;2.80;;
19111;SDS011;9688;51.906;8.376;2023-05-18T12:26:21;7.93;;;3.27;;
19111;SDS011;9688;51.906;8.376;2023-05-18T12:29:09;7.23;;;3.90;;
19111;SDS011;9688;51.906;8.376;2023-05-18T12:31:55;10.50;;;3.40;;
19111;SDS011;9688;51.906;8.376;2023-05-18T12:34:42;5.87;;;3.00;;
19111;SDS011;9688;51.906;8.376;2023-05-18T12:37:30;6.77;;;2.60;;
19111;SDS011;9688;51.906;8.376;2023-05-18T12:40:17;7.10;;;3.27;;
19111;SDS011;9688;51.906;8.376;2023-05-18T12:43:03;9.83;;;2.93;;
19111;SDS011;9688;51.906;8.376;2023-05-18T12:45:49;8.80;;;2.80;;
19111;SDS011;9688;51.906;8.376;2023-05-18T12:48:36;9.97;;;3.00;;
19111;SDS011;9688;51.906;8.376;2023-05-18T12:51:22;8.07;;;2.63;;
19111;SDS011;9688;51.906;8.376;2023-05-18T12:54:15;14.27;;;3.00;;
19111;SDS011;9688;51.906;8.376;2023-05-18T12:57:11;11.23;;;2.53;;
19111;SDS011;9688;51.906;8.376;2023-05-18T12:59:59;7.40;;;2.63;;
19111;SDS011;9688;51.906;8.376;2023-05-18T13:02:54;8.93;;;2.60;;
19111;SDS011;9688;51.906;8.376;2023-05-18T13:06:00;6.37;;;2.50;;
19111;SDS011;9688;51.906;8.376;2023-05-18T13:08:47;7.73;;;3.10;;
19111;SDS011;9688;51.906;8.376;2023-05-18T13:11:35;9.13;;;2.63;;
19111;SDS011;9688;51.906;8.376;2023-05-18T13:14:20;4.93;;;2.63;;
19111;SDS011;9688;51.906;8.376;2023-05-18T13:17:07;7.53;;;2.70;;
19111;SDS011;9688;51.906;8.376;2023-05-18T13:19:55;7.57;;;2.60;;
19111;SDS011;9688;51.906;8.376;2023-05-18T13:22:42;5.83;;;2.70;;
19111;SDS011;9688;51.906;8.376;2023-05-18T13:25:29;6.53;;;2.70;;
19111;SDS011;9688;51.906;8.376;2023-05-18T13:28:19;6.07;;;2.50;;
19111;SDS011;9688;51.906;8.376;2023-05-18T13:31:05;8.27;;;2.57;;
19111;SDS011;9688;51.906;8.376;2023-05-18T13:33:51;7.10;;;2.63;;
19111;SDS011;9688;51.906;8.376;2023-05-18T13:36:37;6.53;;;3.30;;
19111;SDS011;9688;51.906;8.376;2023-05-18T13:39:23;3.93;;;2.33;;
19111;SDS011;9688;51.906;8.376;2023-05-18T13:42:11;8.37;;;2.77;;
19111;SDS011;9688;51.906;8.376;2023-05-18T13:44:58;7.73;;;2.40;;
19111;SDS011;9688;51.906;8.376;2023-05-18T13:47:44;5.57;;;2.73;;
19111;SDS011;9688;51.906;8.376;2023-05-18T13:50:33;6.10;;;2.70;;
19111;SDS011;9688;51.906;8.376;2023-05-18T13:53:20;8.43;;;3.23;;
19111;SDS011;9688;51.906;8.376;2023-05-18T13:56:05;5.67;;;2.47;;
19111;SDS011;9688;51.906;8.376;2023-05-18T13:58:51;10.63;;;2.90;;
19111;SDS011;9688;51.906;8.376;2023-05-18T14:01:38;7.90;;;2.80;;
19111;SDS011;9688;51.906;8.376;2023-05-18T14:04:25;4.97;;;2.90;;
19111;SDS011;9688;51.906;8.376;2023-05-18T14:07:11;5.90;;;2.60;;
19111;SDS011;9688;51.906;8.376;2023-05-18T14:09:58;6.17;;;2.20;;
19111;SDS011;9688;51.906;8.376;2023-05-18T14:12:44;6.70;;;2.50;;
19111;SDS011;9688;51.906;8.376;2023-05-18T14:15:32;5.87;;;2.43;;
19111;SDS011;9688;51.906;8.376;2023-05-18T14:18:20;5.67;;;2.63;;
19111;SDS011;9688;51.906;8.376;2023-05-18T14:21:06;6.83;;;2.77;;
19111;SDS011;9688;51.906;8.376;2023-05-18T14:23:52;5.10;;;2.63;;
19111;SDS011;9688;51.906;8.376;2023-05-18T14:26:40;9.93;;;2.70;;
19111;SDS011;9688;51.906;8.376;2023-05-18T14:29:27;5.73;;;2.63;;
19111;SDS011;9688;51.906;8.376;2023-05-18T14:32:13;6.50;;;2.50;;
19111;SDS011;9688;51.906;8.376;2023-05-18T14:35:01;6.07;;;2.40;;
19111;SDS011;9688;51.906;8.376;2023-05-18T14:37:48;7.33;;;2.60;;
19111;SDS011;9688;51.906;8.376;2023-05-18T14:40:34;8.13;;;2.70;;
19111;SDS011;9688;51.906;8.376;2023-05-18T14:43:20;5.80;;;2.37;;
19111;SDS011;9688;51.906;8.376;2023-05-18T14:46:07;3.63;;;2.00;;
19111;SDS011;9688;51.906;8.376;2023-05-18T14:48:53;9.50;;;2.53;;
19111;SDS011;9688;51.906;8.376;2023-05-18T14:51:40;8.40;;;2.73;;
19111;SDS011;9688;51.906;8.376;2023-05-18T14:54:26;5.13;;;2.30;;
19111;SDS011;9688;51.906;8.376;2023-05-18T14:57:12;9.07;;;2.60;;
19111;SDS011;9688;51.906;8.376;2023-05-18T15:00:00;8.40;;;2.93;;
19111;SDS011;9688;51.906;8.376;2023-05-18T15:02:54;10.00;;;3.13;;
19111;SDS011;9688;51.906;8.376;2023-05-18T15:05:40;7.47;;;2.13;;
19111;SDS011;9688;51.906;8.376;2023-05-18T15:08:29;8.33;;;2.77;;
19111;SDS011;9688;51.906;8.376;2023-05-18T15:11:16;4.67;;;2.63;;
19111;SDS011;9688;51.906;8.376;2023-05-18T15:14:03;6.70;;;2.83;;
19111;SDS011;9688;51.906;8.376;2023-05-18T15:16:49;6.13;;;2.20;;
19111;SDS011;9688;51.906;8.376;2023-05-18T15:19:38;6.80;;;2.23;;
19111;SDS011;9688;51.906;8.376;2023-05-18T15:22:24;7.00;;;2.43;;
19111;SDS011;9688;51.906;8.376;2023-05-18T15:25:14;12.00;;;2.83;;
19111;SDS011;9688;51.906;8.376;2023-05-18T15:28:00;7.00;;;3.17;;
19111;SDS011;9688;51.906;8.376;2023-05-18T15:30:45;7.53;;;2.77;;
19111;SDS011;9688;51.906;8.376;2023-05-18T15:33:32;7.63;;;2.80;;
19111;SDS011;9688;51.906;8.376;2023-05-18T15:36:20;10.37;;;3.20;;
19111;SDS011;9688;51.906;8.376;2023-05-18T15:39:06;6.50;;;3.00;;
19111;SDS011;9688;51.906;8.376;2023-05-18T15:41:53;7.37;;;2.70;;
19111;SDS011;9688;51.906;8.376;2023-05-18T15:44:40;6.80;;;2.80;;
19111;SDS011;9688;51.906;8.376;2023-05-18T15:47:27;10.57;;;3.20;;
19111;SDS011;9688;51.906;8.376;2023-05-18T15:50:14;6.23;;;3.20;;
19111;SDS011;9688;51.906;8.376;2023-05-18T15:53:00;7.13;;;2.70;;
19111;SDS011;9688;51.906;8.376;2023-05-18T15:55:47;9.97;;;2.97;;
19111;SDS011;9688;51.906;8.376;2023-05-18T15:58:35;6.67;;;2.80;;
19111;SDS011;9688;51.906;8.376;2023-05-18T16:01:22;8.97;;;2.60;;
19111;SDS011;9688;51.906;8.376;2023-05-18T16:04:08;10.27;;;3.07;;
19111;SDS011;9688;51.906;8.376;2023-05-18T16:06:54;8.07;;;3.33;;
19111;SDS011;9688;51.906;8.376;2023-05-18T16:09:39;14.10;;;4.03;;
19111;SDS011;9688;51.906;8.376;2023-05-18T16:12:25;7.57;;;3.77;;
19111;SDS011;9688;51.906;8.376;2023-05-18T16:15:13;7.10;;;3.20;;
19111;SDS011;9688;51.906;8.376;2023-05-18T16:17:59;9.03;;;3.23;;
19111;SDS011;9688;51.906;8.376;2023-05-18T16:20:46;7.27;;;2.80;;
19111;SDS011;9688;51.906;8.376;2023-05-18T16:23:36;4.73;;;2.37;;
19111;SDS011;9688;51.906;8.376;2023-05-18T16:26:25;10.33;;;3.63;;
19111;SDS011;9688;51.906;8.376;2023-05-18T16:29:11;7.30;;;3.17;;
19111;SDS011;9688;51.906;8.376;2023-05-18T16:31:59;8.27;;;2.90;;
19111;SDS011;9688;51.906;8.376;2023-05-18T16:34:45;6.23;;;3.10;;
19111;SDS011;9688;51.906;8.376;2023-05-18T16:37:31;6.23;;;2.70;;
19111;SDS011;9688;51.906;8.376;2023-05-18T16:40:17;7.37;;;2.87;;
19111;SDS011;9688;51.906;8.376;2023-05-18T16:43:04;6.00;;;3.57;;
19111;SDS011;9688;51.906;8.376;2023-05-18T16:45:50;8.53;;;3.30;;
19111;SDS011;9688;51.906;8.376;2023-05-18T16:48:39;5.70;;;3.13;;
19111;SDS011;9688;51.906;8.376;2023-05-18T16:51:25;7.40;;;3.13;;
19111;SDS011;9688;51.906;8.376;2023-05-18T16:54:11;7.50;;;3.50;;
19111;SDS011;9688;51.906;8.376;2023-05-18T16:56:57;5.63;;;2.60;;
19111;SDS011;9688;51.906;8.376;2023-05-18T16:59:45;6.53;;;2.83;;